sensor_id;sensor_type;location;lat;lon;timestamp;temperature;humidity
997;DHT22;487;50.126;8.698;2022-10-04T00:02:19;11.20;1.00
997;DHT22;487;50.126;8.698;2022-10-04T00:04:53;11.30;1.00
997;DHT22;487;50.126;8.698;2022-10-04T00:07:28;11.30;1.00
997;DHT22;487;50.126;8.698;2022-10-04T00:10:00;11.20;1.00
997;DHT22;487;50.126;8.698;2022-10-04T00:12:34;11.20;1.00
997;DHT22;487;50.126;8.698;2022-10-04T00:15:05;11.30;1.00
997;DHT22;487;50.126;8.698;2022-10-04T00:17:34;11.20;1.00
997;DHT22;487;50.126;8.698;2022-10-04T00:20:10;11.20;1.00
997;DHT22;487;50.126;8.698;2022-10-04T00:23:26;11.20;1.00
997;DHT22;487;50.126;8.698;2022-10-04T00:25:58;11.20;1.00
997;DHT22;487;50.126;8.698;2022-10-04T00:28:44;11.20;1.00
997;DHT22;487;50.126;8.698;2022-10-04T00:31:22;11.10;1.00
997;DHT22;487;50.126;8.698;2022-10-04T00:33:53;11.10;1.00
997;DHT22;487;50.126;8.698;2022-10-04T00:36:51;11.10;1.00
997;DHT22;487;50.126;8.698;2022-10-04T00:39:40;11.10;1.00
997;DHT22;487;50.126;8.698;2022-10-04T00:45:26;11.10;1.00
997;DHT22;487;50.126;8.698;2022-10-04T00:50:47;11.10;1.00
997;DHT22;487;50.126;8.698;2022-10-04T00:53:26;11.10;1.00
997;DHT22;487;50.126;8.698;2022-10-04T00:56:00;11.00;1.00
997;DHT22;487;50.126;8.698;2022-10-04T00:58:32;11.00;1.00
997;DHT22;487;50.126;8.698;2022-10-04T01:01:02;11.00;1.00
997;DHT22;487;50.126;8.698;2022-10-04T01:03:33;11.00;1.00
997;DHT22;487;50.126;8.698;2022-10-04T01:06:05;11.00;1.00
997;DHT22;487;50.126;8.698;2022-10-04T01:08:38;11.00;1.00
997;DHT22;487;50.126;8.698;2022-10-04T01:11:12;10.90;1.00
997;DHT22;487;50.126;8.698;2022-10-04T01:13:44;10.90;1.00
997;DHT22;487;50.126;8.698;2022-10-04T01:16:17;10.90;1.00
997;DHT22;487;50.126;8.698;2022-10-04T01:18:46;10.80;1.00
997;DHT22;487;50.126;8.698;2022-10-04T01:21:24;10.80;1.00
997;DHT22;487;50.126;8.698;2022-10-04T01:24:16;10.80;1.00
997;DHT22;487;50.126;8.698;2022-10-04T01:26:44;10.80;1.00
997;DHT22;487;50.126;8.698;2022-10-04T01:29:14;10.80;1.00
997;DHT22;487;50.126;8.698;2022-10-04T01:31:44;10.90;1.00
997;DHT22;487;50.126;8.698;2022-10-04T01:34:15;10.90;1.00
997;DHT22;487;50.126;8.698;2022-10-04T01:36:44;10.80;1.00
997;DHT22;487;50.126;8.698;2022-10-04T01:39:13;10.80;1.00
997;DHT22;487;50.126;8.698;2022-10-04T01:41:47;10.80;1.00
997;DHT22;487;50.126;8.698;2022-10-04T01:44:23;10.80;1.00
997;DHT22;487;50.126;8.698;2022-10-04T01:46:54;10.80;1.00
997;DHT22;487;50.126;8.698;2022-10-04T01:49:26;10.80;1.00
997;DHT22;487;50.126;8.698;2022-10-04T01:51:59;10.80;1.00
997;DHT22;487;50.126;8.698;2022-10-04T01:54:33;10.70;1.00
997;DHT22;487;50.126;8.698;2022-10-04T01:57:06;10.70;1.00
997;DHT22;487;50.126;8.698;2022-10-04T01:59:42;10.70;1.00
997;DHT22;487;50.126;8.698;2022-10-04T02:02:20;10.70;1.00
997;DHT22;487;50.126;8.698;2022-10-04T02:04:50;10.70;1.00
997;DHT22;487;50.126;8.698;2022-10-04T02:07:19;10.60;1.00
997;DHT22;487;50.126;8.698;2022-10-04T02:12:22;10.50;1.00
997;DHT22;487;50.126;8.698;2022-10-04T02:14:52;10.40;1.00
997;DHT22;487;50.126;8.698;2022-10-04T02:17:22;10.40;1.00
997;DHT22;487;50.126;8.698;2022-10-04T02:22:22;10.40;1.00
997;DHT22;487;50.126;8.698;2022-10-04T02:24:54;10.30;1.00
997;DHT22;487;50.126;8.698;2022-10-04T02:27:27;10.30;1.00
997;DHT22;487;50.126;8.698;2022-10-04T02:30:00;10.20;1.00
997;DHT22;487;50.126;8.698;2022-10-04T02:32:30;10.20;1.00
997;DHT22;487;50.126;8.698;2022-10-04T02:35:16;10.20;1.00
997;DHT22;487;50.126;8.698;2022-10-04T02:37:45;10.30;1.00
997;DHT22;487;50.126;8.698;2022-10-04T02:40:17;10.30;1.00
997;DHT22;487;50.126;8.698;2022-10-04T02:42:52;10.20;1.00
997;DHT22;487;50.126;8.698;2022-10-04T02:45:25;10.20;1.00
997;DHT22;487;50.126;8.698;2022-10-04T02:47:59;10.20;1.00
997;DHT22;487;50.126;8.698;2022-10-04T02:50:30;10.20;1.00
997;DHT22;487;50.126;8.698;2022-10-04T02:53:11;10.20;1.00
997;DHT22;487;50.126;8.698;2022-10-04T02:55:42;10.20;1.00
997;DHT22;487;50.126;8.698;2022-10-04T02:58:15;10.20;1.00
997;DHT22;487;50.126;8.698;2022-10-04T03:00:46;10.30;1.00
997;DHT22;487;50.126;8.698;2022-10-04T03:03:20;10.20;1.00
997;DHT22;487;50.126;8.698;2022-10-04T03:05:58;10.20;1.00
997;DHT22;487;50.126;8.698;2022-10-04T03:08:29;10.30;1.00
997;DHT22;487;50.126;8.698;2022-10-04T03:10:58;10.30;1.00
997;DHT22;487;50.126;8.698;2022-10-04T03:13:30;10.30;1.00
997;DHT22;487;50.126;8.698;2022-10-04T03:16:00;10.30;1.00
997;DHT22;487;50.126;8.698;2022-10-04T03:18:28;10.30;1.00
997;DHT22;487;50.126;8.698;2022-10-04T03:20:57;10.40;1.00
997;DHT22;487;50.126;8.698;2022-10-04T03:23:29;10.30;1.00
997;DHT22;487;50.126;8.698;2022-10-04T03:26:02;10.40;1.00
997;DHT22;487;50.126;8.698;2022-10-04T03:28:36;10.30;1.00
997;DHT22;487;50.126;8.698;2022-10-04T03:31:04;10.30;1.00
997;DHT22;487;50.126;8.698;2022-10-04T03:33:33;10.30;1.00
997;DHT22;487;50.126;8.698;2022-10-04T03:36:01;10.20;1.00
997;DHT22;487;50.126;8.698;2022-10-04T03:38:31;10.20;1.00
997;DHT22;487;50.126;8.698;2022-10-04T03:41:01;10.20;1.00
997;DHT22;487;50.126;8.698;2022-10-04T03:43:32;10.20;1.00
997;DHT22;487;50.126;8.698;2022-10-04T03:46:05;10.20;1.00
997;DHT22;487;50.126;8.698;2022-10-04T03:48:36;10.20;1.00
997;DHT22;487;50.126;8.698;2022-10-04T03:51:07;10.20;1.00
997;DHT22;487;50.126;8.698;2022-10-04T03:53:39;10.20;1.00
997;DHT22;487;50.126;8.698;2022-10-04T03:56:11;10.20;1.00
997;DHT22;487;50.126;8.698;2022-10-04T03:58:39;10.20;1.00
997;DHT22;487;50.126;8.698;2022-10-04T04:01:18;10.20;1.00
997;DHT22;487;50.126;8.698;2022-10-04T04:03:54;10.30;1.00
997;DHT22;487;50.126;8.698;2022-10-04T04:06:24;10.20;1.00
997;DHT22;487;50.126;8.698;2022-10-04T04:08:54;10.20;1.00
997;DHT22;487;50.126;8.698;2022-10-04T04:11:25;10.20;1.00
997;DHT22;487;50.126;8.698;2022-10-04T04:13:59;10.20;1.00
997;DHT22;487;50.126;8.698;2022-10-04T04:16:31;10.20;1.00
997;DHT22;487;50.126;8.698;2022-10-04T04:19:02;10.20;1.00
997;DHT22;487;50.126;8.698;2022-10-04T04:21:32;10.30;1.00
997;DHT22;487;50.126;8.698;2022-10-04T04:24:01;10.30;1.00
997;DHT22;487;50.126;8.698;2022-10-04T04:26:35;10.30;1.00
997;DHT22;487;50.126;8.698;2022-10-04T04:29:07;10.30;1.00
997;DHT22;487;50.126;8.698;2022-10-04T04:31:43;10.30;1.00
997;DHT22;487;50.126;8.698;2022-10-04T04:34:18;10.30;1.00
997;DHT22;487;50.126;8.698;2022-10-04T04:39:16;10.30;1.00
997;DHT22;487;50.126;8.698;2022-10-04T04:42:05;10.30;1.00
997;DHT22;487;50.126;8.698;2022-10-04T04:44:33;10.30;1.00
997;DHT22;487;50.126;8.698;2022-10-04T04:47:07;10.30;1.00
997;DHT22;487;50.126;8.698;2022-10-04T04:49:40;10.20;1.00
997;DHT22;487;50.126;8.698;2022-10-04T04:52:14;10.20;1.00
997;DHT22;487;50.126;8.698;2022-10-04T04:54:43;10.20;1.00
997;DHT22;487;50.126;8.698;2022-10-04T04:57:15;10.20;1.00
997;DHT22;487;50.126;8.698;2022-10-04T04:59:45;10.20;1.00
997;DHT22;487;50.126;8.698;2022-10-04T05:02:31;10.20;1.00
997;DHT22;487;50.126;8.698;2022-10-04T05:05:18;10.10;1.00
997;DHT22;487;50.126;8.698;2022-10-04T05:07:46;10.10;1.00
997;DHT22;487;50.126;8.698;2022-10-04T05:10:24;10.10;1.00
997;DHT22;487;50.126;8.698;2022-10-04T05:12:55;10.10;1.00
997;DHT22;487;50.126;8.698;2022-10-04T05:15:23;10.10;1.00
997;DHT22;487;50.126;8.698;2022-10-04T05:17:52;10.10;1.00
997;DHT22;487;50.126;8.698;2022-10-04T05:20:20;10.10;1.00
997;DHT22;487;50.126;8.698;2022-10-04T05:25:24;10.10;1.00
997;DHT22;487;50.126;8.698;2022-10-04T05:27:53;10.10;1.00
997;DHT22;487;50.126;8.698;2022-10-04T05:33:24;10.10;1.00
997;DHT22;487;50.126;8.698;2022-10-04T05:36:18;10.10;1.00
997;DHT22;487;50.126;8.698;2022-10-04T05:38:54;10.10;1.00
997;DHT22;487;50.126;8.698;2022-10-04T05:41:36;10.00;1.00
997;DHT22;487;50.126;8.698;2022-10-04T05:44:18;10.00;1.00
997;DHT22;487;50.126;8.698;2022-10-04T05:46:49;10.00;1.00
997;DHT22;487;50.126;8.698;2022-10-04T05:49:20;10.00;1.00
997;DHT22;487;50.126;8.698;2022-10-04T05:51:51;10.00;1.00
997;DHT22;487;50.126;8.698;2022-10-04T05:54:21;10.00;1.00
997;DHT22;487;50.126;8.698;2022-10-04T05:57:24;10.00;1.00
997;DHT22;487;50.126;8.698;2022-10-04T06:00:09;10.00;1.00
997;DHT22;487;50.126;8.698;2022-10-04T06:05:48;10.00;1.00
997;DHT22;487;50.126;8.698;2022-10-04T06:08:25;10.00;1.00
997;DHT22;487;50.126;8.698;2022-10-04T06:11:08;10.10;1.00
997;DHT22;487;50.126;8.698;2022-10-04T06:14:06;10.00;1.00
997;DHT22;487;50.126;8.698;2022-10-04T06:16:53;10.00;1.00
997;DHT22;487;50.126;8.698;2022-10-04T06:19:41;10.00;1.00
997;DHT22;487;50.126;8.698;2022-10-04T06:22:16;10.00;1.00
997;DHT22;487;50.126;8.698;2022-10-04T06:24:48;9.90;1.00
997;DHT22;487;50.126;8.698;2022-10-04T06:27:20;9.90;1.00
997;DHT22;487;50.126;8.698;2022-10-04T06:29:54;10.00;1.00
997;DHT22;487;50.126;8.698;2022-10-04T06:35:58;10.00;1.00
997;DHT22;487;50.126;8.698;2022-10-04T06:44:30;10.20;1.00
997;DHT22;487;50.126;8.698;2022-10-04T06:47:14;10.20;1.00
997;DHT22;487;50.126;8.698;2022-10-04T06:49:53;10.20;1.00
997;DHT22;487;50.126;8.698;2022-10-04T06:52:26;10.20;1.00
997;DHT22;487;50.126;8.698;2022-10-04T07:00:53;10.30;1.00
997;DHT22;487;50.126;8.698;2022-10-04T07:03:26;10.30;1.00
997;DHT22;487;50.126;8.698;2022-10-04T07:06:00;10.40;1.00
997;DHT22;487;50.126;8.698;2022-10-04T07:08:37;10.40;1.00
997;DHT22;487;50.126;8.698;2022-10-04T07:11:13;10.40;1.00
997;DHT22;487;50.126;8.698;2022-10-04T07:13:47;10.50;1.00
997;DHT22;487;50.126;8.698;2022-10-04T07:16:28;10.60;1.00
997;DHT22;487;50.126;8.698;2022-10-04T07:19:05;10.60;1.00
997;DHT22;487;50.126;8.698;2022-10-04T07:21:38;10.70;1.00
997;DHT22;487;50.126;8.698;2022-10-04T07:24:19;10.80;1.00
997;DHT22;487;50.126;8.698;2022-10-04T07:26:48;10.80;1.00
997;DHT22;487;50.126;8.698;2022-10-04T07:29:21;10.90;1.00
997;DHT22;487;50.126;8.698;2022-10-04T07:32:01;10.90;1.00
997;DHT22;487;50.126;8.698;2022-10-04T07:34:33;11.00;1.00
997;DHT22;487;50.126;8.698;2022-10-04T07:37:06;11.00;1.00
997;DHT22;487;50.126;8.698;2022-10-04T07:39:42;11.00;1.00
997;DHT22;487;50.126;8.698;2022-10-04T07:42:20;11.10;1.00
997;DHT22;487;50.126;8.698;2022-10-04T07:45:02;11.20;1.00
997;DHT22;487;50.126;8.698;2022-10-04T07:47:31;11.20;1.00
997;DHT22;487;50.126;8.698;2022-10-04T07:49:59;11.20;1.00
997;DHT22;487;50.126;8.698;2022-10-04T07:52:49;11.20;1.00
997;DHT22;487;50.126;8.698;2022-10-04T07:55:25;11.30;1.00
997;DHT22;487;50.126;8.698;2022-10-04T07:58:08;11.30;1.00
997;DHT22;487;50.126;8.698;2022-10-04T08:00:47;11.30;1.00
997;DHT22;487;50.126;8.698;2022-10-04T08:03:29;11.40;1.00
997;DHT22;487;50.126;8.698;2022-10-04T08:06:08;11.40;1.00
997;DHT22;487;50.126;8.698;2022-10-04T08:09:01;11.40;1.00
997;DHT22;487;50.126;8.698;2022-10-04T08:11:40;11.50;1.00
997;DHT22;487;50.126;8.698;2022-10-04T08:14:26;11.60;1.00
997;DHT22;487;50.126;8.698;2022-10-04T08:17:06;11.60;1.00
997;DHT22;487;50.126;8.698;2022-10-04T08:19:53;11.60;1.00
997;DHT22;487;50.126;8.698;2022-10-04T08:22:32;11.70;1.00
997;DHT22;487;50.126;8.698;2022-10-04T08:25:05;11.80;1.00
997;DHT22;487;50.126;8.698;2022-10-04T08:27:55;11.80;1.00
997;DHT22;487;50.126;8.698;2022-10-04T08:30:57;11.80;1.00
997;DHT22;487;50.126;8.698;2022-10-04T08:33:40;12.00;1.00
997;DHT22;487;50.126;8.698;2022-10-04T08:36:19;12.00;1.00
997;DHT22;487;50.126;8.698;2022-10-04T08:38:55;12.10;1.00
997;DHT22;487;50.126;8.698;2022-10-04T08:42:10;12.10;1.00
997;DHT22;487;50.126;8.698;2022-10-04T08:45:22;12.10;1.00
997;DHT22;487;50.126;8.698;2022-10-04T08:48:21;12.20;1.00
997;DHT22;487;50.126;8.698;2022-10-04T08:51:23;12.20;1.00
997;DHT22;487;50.126;8.698;2022-10-04T08:54:20;12.20;1.00
997;DHT22;487;50.126;8.698;2022-10-04T08:57:11;12.30;1.00
997;DHT22;487;50.126;8.698;2022-10-04T09:00:07;12.40;1.00
997;DHT22;487;50.126;8.698;2022-10-04T09:03:02;12.50;1.00
997;DHT22;487;50.126;8.698;2022-10-04T09:05:55;12.60;1.00
997;DHT22;487;50.126;8.698;2022-10-04T09:08:59;12.50;1.00
997;DHT22;487;50.126;8.698;2022-10-04T09:11:48;12.60;1.00
997;DHT22;487;50.126;8.698;2022-10-04T09:14:44;12.70;1.00
997;DHT22;487;50.126;8.698;2022-10-04T09:17:19;12.70;1.00
997;DHT22;487;50.126;8.698;2022-10-04T09:20:00;12.80;1.00
997;DHT22;487;50.126;8.698;2022-10-04T09:22:54;12.90;1.00
997;DHT22;487;50.126;8.698;2022-10-04T09:25:48;13.00;1.00
997;DHT22;487;50.126;8.698;2022-10-04T09:28:57;13.00;1.00
997;DHT22;487;50.126;8.698;2022-10-04T09:35:02;13.20;1.00
997;DHT22;487;50.126;8.698;2022-10-04T09:37:48;13.30;1.00
997;DHT22;487;50.126;8.698;2022-10-04T09:46:59;13.50;1.00
997;DHT22;487;50.126;8.698;2022-10-04T09:52:35;13.70;1.00
997;DHT22;487;50.126;8.698;2022-10-04T09:55:24;13.70;1.00
997;DHT22;487;50.126;8.698;2022-10-04T09:58:10;13.80;1.00
997;DHT22;487;50.126;8.698;2022-10-04T10:00:49;13.80;1.00
997;DHT22;487;50.126;8.698;2022-10-04T10:03:41;14.00;1.00
997;DHT22;487;50.126;8.698;2022-10-04T10:06:42;14.00;1.00
997;DHT22;487;50.126;8.698;2022-10-04T10:09:20;14.10;1.00
997;DHT22;487;50.126;8.698;2022-10-04T10:12:24;14.20;1.00
997;DHT22;487;50.126;8.698;2022-10-04T10:15:28;14.40;1.00
997;DHT22;487;50.126;8.698;2022-10-04T10:18:09;14.50;1.00
997;DHT22;487;50.126;8.698;2022-10-04T10:21:04;14.50;1.00
997;DHT22;487;50.126;8.698;2022-10-04T10:23:49;14.50;1.00
997;DHT22;487;50.126;8.698;2022-10-04T10:26:45;14.50;1.00
997;DHT22;487;50.126;8.698;2022-10-04T10:32:30;14.50;1.00
997;DHT22;487;50.126;8.698;2022-10-04T10:35:26;14.50;1.00
997;DHT22;487;50.126;8.698;2022-10-04T10:38:24;14.50;1.00
997;DHT22;487;50.126;8.698;2022-10-04T10:41:22;14.50;1.00
997;DHT22;487;50.126;8.698;2022-10-04T10:46:41;14.50;1.00
997;DHT22;487;50.126;8.698;2022-10-04T10:52:34;14.60;1.00
997;DHT22;487;50.126;8.698;2022-10-04T10:55:27;14.70;1.00
997;DHT22;487;50.126;8.698;2022-10-04T10:58:24;14.80;1.00
997;DHT22;487;50.126;8.698;2022-10-04T11:01:12;14.90;1.00
997;DHT22;487;50.126;8.698;2022-10-04T11:04:02;15.10;1.00
997;DHT22;487;50.126;8.698;2022-10-04T11:06:54;15.30;1.00
997;DHT22;487;50.126;8.698;2022-10-04T11:09:33;15.30;1.00
997;DHT22;487;50.126;8.698;2022-10-04T11:12:38;15.40;1.00
997;DHT22;487;50.126;8.698;2022-10-04T11:21:59;15.90;1.00
997;DHT22;487;50.126;8.698;2022-10-04T11:24:58;15.90;1.00
997;DHT22;487;50.126;8.698;2022-10-04T11:27:43;15.80;1.00
997;DHT22;487;50.126;8.698;2022-10-04T11:30:20;15.80;1.00
997;DHT22;487;50.126;8.698;2022-10-04T11:33:22;15.70;1.00
997;DHT22;487;50.126;8.698;2022-10-04T11:39:22;15.80;1.00
997;DHT22;487;50.126;8.698;2022-10-04T11:42:02;15.90;1.00
997;DHT22;487;50.126;8.698;2022-10-04T11:44:42;16.10;1.00
997;DHT22;487;50.126;8.698;2022-10-04T11:47:34;16.10;1.00
997;DHT22;487;50.126;8.698;2022-10-04T11:50:28;16.20;1.00
997;DHT22;487;50.126;8.698;2022-10-04T11:53:22;16.40;1.00
997;DHT22;487;50.126;8.698;2022-10-04T11:56:06;16.40;1.00
997;DHT22;487;50.126;8.698;2022-10-04T11:58:48;16.40;1.00
997;DHT22;487;50.126;8.698;2022-10-04T12:01:38;16.40;1.00
997;DHT22;487;50.126;8.698;2022-10-04T12:04:42;16.60;1.00
997;DHT22;487;50.126;8.698;2022-10-04T12:07:30;16.60;1.00
997;DHT22;487;50.126;8.698;2022-10-04T12:10:12;16.80;1.00
997;DHT22;487;50.126;8.698;2022-10-04T12:22:04;17.00;1.00
997;DHT22;487;50.126;8.698;2022-10-04T12:24:55;17.00;1.00
997;DHT22;487;50.126;8.698;2022-10-04T12:27:45;17.00;1.00
997;DHT22;487;50.126;8.698;2022-10-04T12:30:24;17.10;1.00
997;DHT22;487;50.126;8.698;2022-10-04T12:33:03;17.20;1.00
997;DHT22;487;50.126;8.698;2022-10-04T12:35:52;17.40;1.00
997;DHT22;487;50.126;8.698;2022-10-04T12:38:48;17.40;1.00
997;DHT22;487;50.126;8.698;2022-10-04T12:41:30;17.40;1.00
997;DHT22;487;50.126;8.698;2022-10-04T12:44:13;17.50;1.00
997;DHT22;487;50.126;8.698;2022-10-04T12:46:53;17.50;1.00
997;DHT22;487;50.126;8.698;2022-10-04T12:49:34;17.60;1.00
997;DHT22;487;50.126;8.698;2022-10-04T12:52:10;17.70;1.00
997;DHT22;487;50.126;8.698;2022-10-04T12:54:43;17.80;1.00
997;DHT22;487;50.126;8.698;2022-10-04T12:57:29;17.80;1.00
997;DHT22;487;50.126;8.698;2022-10-04T13:00:05;17.90;1.00
997;DHT22;487;50.126;8.698;2022-10-04T13:02:52;18.00;1.00
997;DHT22;487;50.126;8.698;2022-10-04T13:05:28;18.10;1.00
997;DHT22;487;50.126;8.698;2022-10-04T13:08:19;18.10;1.00
997;DHT22;487;50.126;8.698;2022-10-04T13:11:07;18.10;1.00
997;DHT22;487;50.126;8.698;2022-10-04T13:14:15;18.20;1.00
997;DHT22;487;50.126;8.698;2022-10-04T13:16:52;18.20;1.00
997;DHT22;487;50.126;8.698;2022-10-04T13:22:28;18.30;1.00
997;DHT22;487;50.126;8.698;2022-10-04T13:28:18;18.30;1.00
997;DHT22;487;50.126;8.698;2022-10-04T13:30:56;18.40;1.00
997;DHT22;487;50.126;8.698;2022-10-04T13:33:34;18.40;1.00
997;DHT22;487;50.126;8.698;2022-10-04T13:36:07;18.40;1.00
997;DHT22;487;50.126;8.698;2022-10-04T13:38:52;18.50;1.00
997;DHT22;487;50.126;8.698;2022-10-04T13:41:30;18.50;1.00
997;DHT22;487;50.126;8.698;2022-10-04T13:44:15;18.60;1.00
997;DHT22;487;50.126;8.698;2022-10-04T13:47:02;18.60;1.00
997;DHT22;487;50.126;8.698;2022-10-04T13:49:43;18.70;1.00
997;DHT22;487;50.126;8.698;2022-10-04T13:52:22;18.70;1.00
997;DHT22;487;50.126;8.698;2022-10-04T13:55:25;20.10;1.00
997;DHT22;487;50.126;8.698;2022-10-04T13:58:24;18.70;1.00
997;DHT22;487;50.126;8.698;2022-10-04T14:01:12;18.70;1.00
997;DHT22;487;50.126;8.698;2022-10-04T14:03:51;18.80;1.00
997;DHT22;487;50.126;8.698;2022-10-04T14:06:42;18.80;1.00
997;DHT22;487;50.126;8.698;2022-10-04T14:09:39;18.80;1.00
997;DHT22;487;50.126;8.698;2022-10-04T14:12:35;18.80;1.00
997;DHT22;487;50.126;8.698;2022-10-04T14:15:28;18.90;1.00
997;DHT22;487;50.126;8.698;2022-10-04T14:18:46;18.90;1.00
997;DHT22;487;50.126;8.698;2022-10-04T14:24:38;19.00;1.00
997;DHT22;487;50.126;8.698;2022-10-04T14:30:28;19.10;1.00
997;DHT22;487;50.126;8.698;2022-10-04T14:36:30;19.20;1.00
997;DHT22;487;50.126;8.698;2022-10-04T14:39:43;19.20;1.00
997;DHT22;487;50.126;8.698;2022-10-04T14:42:28;19.20;1.00
997;DHT22;487;50.126;8.698;2022-10-04T14:51:17;19.30;1.00
997;DHT22;487;50.126;8.698;2022-10-04T14:53:53;19.30;1.00
997;DHT22;487;50.126;8.698;2022-10-04T14:56:38;19.30;1.00
997;DHT22;487;50.126;8.698;2022-10-04T14:59:39;19.40;1.00
997;DHT22;487;50.126;8.698;2022-10-04T15:02:34;19.40;1.00
997;DHT22;487;50.126;8.698;2022-10-04T15:05:32;19.50;1.00
997;DHT22;487;50.126;8.698;2022-10-04T15:11:35;19.70;1.00
997;DHT22;487;50.126;8.698;2022-10-04T15:14:31;19.90;1.00
997;DHT22;487;50.126;8.698;2022-10-04T15:17:04;19.90;1.00
997;DHT22;487;50.126;8.698;2022-10-04T15:19:50;20.00;1.00
997;DHT22;487;50.126;8.698;2022-10-04T15:22:23;19.90;1.00
997;DHT22;487;50.126;8.698;2022-10-04T15:24:53;20.10;1.00
997;DHT22;487;50.126;8.698;2022-10-04T15:27:50;20.10;1.00
997;DHT22;487;50.126;8.698;2022-10-04T15:30:28;20.20;1.00
997;DHT22;487;50.126;8.698;2022-10-04T15:33:16;20.30;1.00
997;DHT22;487;50.126;8.698;2022-10-04T15:35:54;20.30;1.00
997;DHT22;487;50.126;8.698;2022-10-04T15:38:29;20.30;1.00
997;DHT22;487;50.126;8.698;2022-10-04T15:41:01;20.40;1.00
997;DHT22;487;50.126;8.698;2022-10-04T15:43:33;20.40;1.00
997;DHT22;487;50.126;8.698;2022-10-04T15:46:25;20.40;1.00
997;DHT22;487;50.126;8.698;2022-10-04T15:49:35;20.40;1.00
997;DHT22;487;50.126;8.698;2022-10-04T15:52:13;20.40;1.00
997;DHT22;487;50.126;8.698;2022-10-04T15:55:06;20.40;1.00
997;DHT22;487;50.126;8.698;2022-10-04T15:57:51;20.50;1.00
997;DHT22;487;50.126;8.698;2022-10-04T16:00:24;20.50;1.00
997;DHT22;487;50.126;8.698;2022-10-04T16:03:14;20.30;1.00
997;DHT22;487;50.126;8.698;2022-10-04T16:05:58;20.30;1.00
997;DHT22;487;50.126;8.698;2022-10-04T16:09:01;20.30;1.00
997;DHT22;487;50.126;8.698;2022-10-04T16:14:45;19.90;1.00
997;DHT22;487;50.126;8.698;2022-10-04T16:17:42;19.90;1.00
997;DHT22;487;50.126;8.698;2022-10-04T16:20:45;19.70;1.00
997;DHT22;487;50.126;8.698;2022-10-04T16:23:27;19.70;1.00
997;DHT22;487;50.126;8.698;2022-10-04T16:25:58;19.60;1.00
997;DHT22;487;50.126;8.698;2022-10-04T16:28:57;19.50;1.00
997;DHT22;487;50.126;8.698;2022-10-04T16:31:44;19.40;1.00
997;DHT22;487;50.126;8.698;2022-10-04T16:34:47;19.10;1.00
997;DHT22;487;50.126;8.698;2022-10-04T16:37:32;19.00;1.00
997;DHT22;487;50.126;8.698;2022-10-04T16:40:18;18.90;1.00
997;DHT22;487;50.126;8.698;2022-10-04T16:42:51;18.80;1.00
997;DHT22;487;50.126;8.698;2022-10-04T16:45:44;18.60;1.00
997;DHT22;487;50.126;8.698;2022-10-04T16:48:33;18.50;1.00
997;DHT22;487;50.126;8.698;2022-10-04T16:51:29;18.40;1.00
997;DHT22;487;50.126;8.698;2022-10-04T16:54:08;18.10;1.00
997;DHT22;487;50.126;8.698;2022-10-04T16:57:10;18.10;1.00
997;DHT22;487;50.126;8.698;2022-10-04T16:59:50;18.10;1.00
997;DHT22;487;50.126;8.698;2022-10-04T17:11:40;17.70;1.00
997;DHT22;487;50.126;8.698;2022-10-04T17:14:33;17.60;1.00
997;DHT22;487;50.126;8.698;2022-10-04T17:17:07;17.60;1.00
997;DHT22;487;50.126;8.698;2022-10-04T17:19:45;17.50;1.00
997;DHT22;487;50.126;8.698;2022-10-04T17:22:26;17.50;1.00
997;DHT22;487;50.126;8.698;2022-10-04T17:25:02;17.40;1.00
997;DHT22;487;50.126;8.698;2022-10-04T17:27:45;17.40;1.00
997;DHT22;487;50.126;8.698;2022-10-04T17:30:16;17.40;1.00
997;DHT22;487;50.126;8.698;2022-10-04T17:33:10;17.30;1.00
997;DHT22;487;50.126;8.698;2022-10-04T17:36:02;17.20;1.00
997;DHT22;487;50.126;8.698;2022-10-04T17:38:50;17.20;1.00
997;DHT22;487;50.126;8.698;2022-10-04T17:41:30;17.10;1.00
997;DHT22;487;50.126;8.698;2022-10-04T17:44:21;17.10;1.00
997;DHT22;487;50.126;8.698;2022-10-04T17:46:59;17.00;1.00
997;DHT22;487;50.126;8.698;2022-10-04T17:49:36;17.00;1.00
997;DHT22;487;50.126;8.698;2022-10-04T17:52:27;17.00;1.00
997;DHT22;487;50.126;8.698;2022-10-04T17:55:23;16.90;1.00
997;DHT22;487;50.126;8.698;2022-10-04T17:57:59;16.90;1.00
997;DHT22;487;50.126;8.698;2022-10-04T18:00:47;16.80;1.00
997;DHT22;487;50.126;8.698;2022-10-04T18:03:18;16.80;1.00
997;DHT22;487;50.126;8.698;2022-10-04T18:05:49;16.70;1.00
997;DHT22;487;50.126;8.698;2022-10-04T18:08:27;16.70;1.00
997;DHT22;487;50.126;8.698;2022-10-04T18:11:00;16.70;1.00
997;DHT22;487;50.126;8.698;2022-10-04T18:13:31;16.70;1.00
997;DHT22;487;50.126;8.698;2022-10-04T18:16:07;16.60;1.00
997;DHT22;487;50.126;8.698;2022-10-04T18:18:38;16.60;1.00
997;DHT22;487;50.126;8.698;2022-10-04T18:21:19;16.60;1.00
997;DHT22;487;50.126;8.698;2022-10-04T18:26:23;16.50;1.00
997;DHT22;487;50.126;8.698;2022-10-04T18:28:52;16.40;1.00
997;DHT22;487;50.126;8.698;2022-10-04T18:31:34;16.40;1.00
997;DHT22;487;50.126;8.698;2022-10-04T18:34:16;16.40;1.00
997;DHT22;487;50.126;8.698;2022-10-04T18:36:51;16.40;1.00
997;DHT22;487;50.126;8.698;2022-10-04T18:39:21;16.30;1.00
997;DHT22;487;50.126;8.698;2022-10-04T18:42:12;16.30;1.00
997;DHT22;487;50.126;8.698;2022-10-04T18:44:44;16.30;1.00
997;DHT22;487;50.126;8.698;2022-10-04T18:47:15;16.30;1.00
997;DHT22;487;50.126;8.698;2022-10-04T18:49:49;16.30;1.00
997;DHT22;487;50.126;8.698;2022-10-04T18:52:27;16.30;1.00
997;DHT22;487;50.126;8.698;2022-10-04T18:55:10;16.20;1.00
997;DHT22;487;50.126;8.698;2022-10-04T18:57:46;16.20;1.00
997;DHT22;487;50.126;8.698;2022-10-04T19:00:39;14.40;1.00
997;DHT22;487;50.126;8.698;2022-10-04T19:03:31;16.10;1.00
997;DHT22;487;50.126;8.698;2022-10-04T19:06:07;16.10;1.00
997;DHT22;487;50.126;8.698;2022-10-04T19:08:44;16.00;1.00
997;DHT22;487;50.126;8.698;2022-10-04T19:11:19;16.00;1.00
997;DHT22;487;50.126;8.698;2022-10-04T19:13:54;16.00;1.00
997;DHT22;487;50.126;8.698;2022-10-04T19:16:38;16.00;1.00
997;DHT22;487;50.126;8.698;2022-10-04T19:19:21;16.00;1.00
997;DHT22;487;50.126;8.698;2022-10-04T19:21:56;16.00;1.00
997;DHT22;487;50.126;8.698;2022-10-04T19:24:46;15.90;1.00
997;DHT22;487;50.126;8.698;2022-10-04T19:27:21;15.90;1.00
997;DHT22;487;50.126;8.698;2022-10-04T19:30:04;15.90;1.00
997;DHT22;487;50.126;8.698;2022-10-04T19:32:46;15.90;1.00
997;DHT22;487;50.126;8.698;2022-10-04T19:35:27;15.80;1.00
997;DHT22;487;50.126;8.698;2022-10-04T19:38:05;15.80;1.00
997;DHT22;487;50.126;8.698;2022-10-04T19:40:41;15.80;1.00
997;DHT22;487;50.126;8.698;2022-10-04T19:43:21;15.70;1.00
997;DHT22;487;50.126;8.698;2022-10-04T19:46:05;15.70;1.00
997;DHT22;487;50.126;8.698;2022-10-04T19:48:44;15.70;1.00
997;DHT22;487;50.126;8.698;2022-10-04T19:51:20;15.60;1.00
997;DHT22;487;50.126;8.698;2022-10-04T19:53:56;15.30;1.00
997;DHT22;487;50.126;8.698;2022-10-04T19:56:31;15.30;1.00
997;DHT22;487;50.126;8.698;2022-10-04T19:59:04;15.30;1.00
997;DHT22;487;50.126;8.698;2022-10-04T20:01:35;15.20;1.00
997;DHT22;487;50.126;8.698;2022-10-04T20:04:09;15.10;1.00
997;DHT22;487;50.126;8.698;2022-10-04T20:06:59;15.10;1.00
997;DHT22;487;50.126;8.698;2022-10-04T20:09:32;15.00;1.00
997;DHT22;487;50.126;8.698;2022-10-04T20:12:00;14.90;1.00
997;DHT22;487;50.126;8.698;2022-10-04T20:14:42;14.90;1.00
997;DHT22;487;50.126;8.698;2022-10-04T20:17:31;14.80;1.00
997;DHT22;487;50.126;8.698;2022-10-04T20:20:00;14.70;1.00
997;DHT22;487;50.126;8.698;2022-10-04T20:28:37;14.60;1.00